createdAt,value
2018-01-26T00:00:10.660Z,31.83
2018-01-26T00:02:38.697Z,28.50
2018-01-26T00:05:07.076Z,26.57
2018-01-26T00:07:35.433Z,31.60
2018-01-26T00:10:03.729Z,29.47
2018-01-26T00:12:32.764Z,28.13
2018-01-26T00:15:01.171Z,29.93
2018-01-26T00:17:30.260Z,28.50
2018-01-26T00:19:59.393Z,29.47
2018-01-26T00:22:27.664Z,33.33
2018-01-26T00:24:56.000Z,28.63
2018-01-26T00:27:24.314Z,28.47
2018-01-26T00:29:53.371Z,28.20
2018-01-26T00:32:21.676Z,30.40
2018-01-26T00:34:50.792Z,27.57
2018-01-26T00:37:19.057Z,29.33
2018-01-26T00:39:48.107Z,30.00
2018-01-26T00:42:16.456Z,28.57
2018-01-26T00:44:44.725Z,27.83
2018-01-26T00:47:13.029Z,28.67
2018-01-26T00:49:41.309Z,32.07
2018-01-26T00:52:09.607Z,28.60
2018-01-26T00:54:37.883Z,30.70
2018-01-26T00:57:06.956Z,29.80
2018-01-26T00:59:35.233Z,28.13
2018-01-26T01:02:03.508Z,26.43
2018-01-26T01:04:31.842Z,29.93
2018-01-26T01:07:00.891Z,27.87
2018-01-26T01:09:29.197Z,30.60
2018-01-26T01:11:57.467Z,29.77
2018-01-26T01:14:26.016Z,27.60
2018-01-26T01:16:54.300Z,29.43
2018-01-26T01:19:22.590Z,30.47
2018-01-26T01:21:50.902Z,29.47
2018-01-26T01:24:19.926Z,28.57
2018-01-26T01:26:48.928Z,32.40
2018-01-26T01:29:17.194Z,26.30
2018-01-26T01:31:45.464Z,29.17
2018-01-26T01:34:13.766Z,30.43
2018-01-26T01:36:42.037Z,27.90
2018-01-26T01:39:10.686Z,29.30
2018-01-26T01:41:38.986Z,27.73
2018-01-26T01:44:08.020Z,27.63
2018-01-26T01:46:36.339Z,26.83
2018-01-26T01:49:16.136Z,28.13
2018-01-26T01:51:44.457Z,27.83
2018-01-26T01:54:12.733Z,26.00
2018-01-26T01:56:41.034Z,27.93
2018-01-26T01:59:10.077Z,30.77
2018-01-26T02:01:38.349Z,28.70
2018-01-26T02:04:06.684Z,28.90
2018-01-26T02:06:34.952Z,26.13
2018-01-26T02:09:04.025Z,25.07
2018-01-26T02:11:32.311Z,21.07
2018-01-26T02:14:00.616Z,26.77
2018-01-26T02:16:28.901Z,26.63
2018-01-26T02:18:58.332Z,28.40
2018-01-26T02:21:26.609Z,29.30
2018-01-26T02:23:54.889Z,27.93
2018-01-26T02:26:23.189Z,27.87
2018-01-26T02:28:51.456Z,27.90
2018-01-26T02:31:19.751Z,30.40
2018-01-26T02:33:48.025Z,27.00
2018-01-26T02:36:16.326Z,27.60
2018-01-26T02:38:44.600Z,27.20
2018-01-26T02:41:12.929Z,26.70
2018-01-26T02:43:41.970Z,22.47
2018-01-26T02:46:10.261Z,21.53
2018-01-26T02:48:39.338Z,29.53
2018-01-26T02:51:07.601Z,24.77
2018-01-26T02:53:35.899Z,29.33
2018-01-26T02:56:04.152Z,29.57
2018-01-26T02:58:32.453Z,27.63
2018-01-26T03:01:00.712Z,27.53
2018-01-26T03:03:29.026Z,23.07
2018-01-26T03:05:58.065Z,28.23
2018-01-26T03:08:26.496Z,27.57
2018-01-26T03:10:54.765Z,28.10
2018-01-26T03:13:23.050Z,28.93
2018-01-26T03:15:51.511Z,27.90
2018-01-26T03:18:19.773Z,28.83
2018-01-26T03:20:48.088Z,28.90
2018-01-26T03:23:16.365Z,29.93
2018-01-26T03:25:44.643Z,29.17
2018-01-26T03:28:13.703Z,28.93
2018-01-26T03:30:41.985Z,25.67
2018-01-26T03:33:10.276Z,26.70
2018-01-26T03:35:38.552Z,28.37
2018-01-26T03:38:06.868Z,26.70
2018-01-26T03:40:35.936Z,28.53
2018-01-26T03:43:04.212Z,26.70
2018-01-26T03:45:32.508Z,25.90
2018-01-26T03:48:01.560Z,22.77
2018-01-26T03:50:29.846Z,28.87
2018-01-26T03:52:58.122Z,28.60
2018-01-26T03:55:26.421Z,25.83
2018-01-26T03:57:55.456Z,30.70
2018-01-26T04:00:23.780Z,28.57
2018-01-26T04:02:52.043Z,25.30
2018-01-26T04:05:20.300Z,26.57
2018-01-26T04:07:48.603Z,30.77
2018-01-26T04:10:16.881Z,26.67
2018-01-26T04:13:05.657Z,27.20
2018-01-26T04:15:34.361Z,24.80
2018-01-26T04:18:03.428Z,28.80
2018-01-26T04:20:31.712Z,27.40
2018-01-26T04:23:00.017Z,28.13
2018-01-26T04:25:29.100Z,25.83
2018-01-26T04:27:57.378Z,27.40
2018-01-26T04:30:25.674Z,27.90
2018-01-26T04:32:54.703Z,28.37
2018-01-26T04:35:22.992Z,29.27
2018-01-26T04:37:51.274Z,27.30
2018-01-26T04:40:19.572Z,30.10
2018-01-26T04:42:47.851Z,31.37
2018-01-26T04:45:16.134Z,28.83
2018-01-26T04:47:44.434Z,32.13
2018-01-26T04:50:13.496Z,26.70
2018-01-26T04:52:41.799Z,32.93
2018-01-26T04:55:10.086Z,29.20
2018-01-26T04:57:39.147Z,29.67
2018-01-26T05:00:07.429Z,28.90
2018-01-26T05:02:35.733Z,27.63
2018-01-26T05:05:04.013Z,28.87
2018-01-26T05:07:33.067Z,30.73
2018-01-26T05:10:01.383Z,29.87
2018-01-26T05:12:30.435Z,28.17
2018-01-26T05:14:58.734Z,29.97
2018-01-26T05:17:27.002Z,26.80
2018-01-26T05:19:55.312Z,30.67
2018-01-26T05:22:24.375Z,30.90
2018-01-26T05:24:52.644Z,30.00
2018-01-26T05:27:20.953Z,31.33
2018-01-26T05:29:50.018Z,27.50
2018-01-26T05:32:18.327Z,27.73
2018-01-26T05:34:46.613Z,29.50
2018-01-26T05:37:14.918Z,31.27
2018-01-26T05:39:43.950Z,29.60
2018-01-26T05:42:12.250Z,28.80
2018-01-26T05:44:40.530Z,27.77
2018-01-26T05:47:08.799Z,27.60
2018-01-26T05:49:37.109Z,27.57
2018-01-26T05:52:06.141Z,31.23
2018-01-26T05:54:34.458Z,29.83
2018-01-26T05:57:02.726Z,32.53
2018-01-26T05:59:31.033Z,27.60
2018-01-26T06:02:00.082Z,27.80
2018-01-26T06:04:28.810Z,28.83
2018-01-26T06:06:57.087Z,29.40
2018-01-26T06:09:25.373Z,29.23
2018-01-26T06:11:54.446Z,28.40
2018-01-26T06:14:22.721Z,29.80
2018-01-26T06:16:51.024Z,29.43
2018-01-26T06:19:20.077Z,28.50
2018-01-26T06:21:48.371Z,28.20
2018-01-26T06:24:16.656Z,27.30
2018-01-26T06:26:45.345Z,28.67
2018-01-26T06:29:13.612Z,32.43
2018-01-26T06:31:41.884Z,30.43
2018-01-26T06:34:10.182Z,26.70
2018-01-26T06:36:38.463Z,28.30
2018-01-26T06:39:06.880Z,27.80
2018-01-26T06:41:35.186Z,28.30
2018-01-26T06:44:03.495Z,24.00
2018-01-26T06:46:31.760Z,26.37
2018-01-26T06:49:00.038Z,25.87
2018-01-26T06:51:28.333Z,29.97
2018-01-26T06:53:57.326Z,29.10
2018-01-26T06:56:25.637Z,28.73
2018-01-26T06:58:53.906Z,27.30
2018-01-26T07:01:22.974Z,32.87
2018-01-26T07:03:51.265Z,27.80
2018-01-26T07:06:19.581Z,26.00
2018-01-26T07:08:47.866Z,24.30
2018-01-26T07:11:16.166Z,27.70
2018-01-26T07:13:44.885Z,25.87
2018-01-26T07:16:13.167Z,30.20
2018-01-26T07:18:42.243Z,27.17
2018-01-26T07:21:10.539Z,25.67
2018-01-26T07:23:39.612Z,28.80
2018-01-26T07:26:07.898Z,22.43
2018-01-26T07:28:36.254Z,25.57
2018-01-26T07:31:04.516Z,27.60
2018-01-26T07:33:32.781Z,31.13
2018-01-26T07:36:01.061Z,26.43
2018-01-26T07:38:29.345Z,27.77
2018-01-26T07:40:57.696Z,25.87
2018-01-26T07:43:26.728Z,24.60
2018-01-26T07:45:55.388Z,28.13
2018-01-26T07:48:23.678Z,25.10
2018-01-26T07:50:52.037Z,28.47
2018-01-26T07:53:20.356Z,21.67
2018-01-26T07:55:48.803Z,27.90
2018-01-26T07:58:17.857Z,27.40
2018-01-26T08:00:46.213Z,27.33
2018-01-26T08:03:14.488Z,27.40
2018-01-26T08:05:42.798Z,30.57
2018-01-26T08:08:11.117Z,28.33
2018-01-26T08:10:39.385Z,27.33
2018-01-26T08:13:07.662Z,28.83
2018-01-26T08:15:35.948Z,26.57
2018-01-26T08:18:04.242Z,28.13
2018-01-26T08:20:32.559Z,24.70
2018-01-26T08:23:00.820Z,24.93
2018-01-26T08:25:29.127Z,24.60
2018-01-26T08:27:57.420Z,25.97
2018-01-26T08:30:26.494Z,25.57
2018-01-26T08:32:54.760Z,26.20
2018-01-26T08:35:23.049Z,23.90
2018-01-26T08:37:51.350Z,29.00
2018-01-26T08:40:20.452Z,27.13
2018-01-26T08:42:48.713Z,28.00
2018-01-26T08:45:20.422Z,22.57
2018-01-26T08:47:49.046Z,27.10
2018-01-26T08:50:17.360Z,27.67
2018-01-26T08:52:47.386Z,27.33
2018-01-26T08:55:17.138Z,27.77
2018-01-26T08:57:45.408Z,27.10
2018-01-26T09:00:13.711Z,28.93
2018-01-26T09:02:41.988Z,27.57
2018-01-26T09:05:10.289Z,28.40
2018-01-26T09:07:39.335Z,27.83
2018-01-26T09:10:07.638Z,27.13
2018-01-26T09:12:35.919Z,26.90
2018-01-26T09:15:04.195Z,27.23
2018-01-26T09:17:32.509Z,27.77
2018-01-26T09:20:00.817Z,27.13
2018-01-26T09:22:29.168Z,27.70
2018-01-26T09:24:58.193Z,26.97
2018-01-26T09:27:26.488Z,25.60
2018-01-26T09:29:54.764Z,28.67
2018-01-26T09:32:23.842Z,30.17
2018-01-26T09:34:52.157Z,28.00
2018-01-26T09:37:20.477Z,27.40
2018-01-26T09:39:48.775Z,27.23
2018-01-26T09:42:17.078Z,29.60
2018-01-26T09:44:45.394Z,25.20
2018-01-26T09:47:14.484Z,26.80
2018-01-26T09:49:42.764Z,27.40
2018-01-26T09:52:11.877Z,26.80
2018-01-26T09:54:40.201Z,25.23
2018-01-26T09:57:08.475Z,28.20
2018-01-26T09:59:36.753Z,27.27
2018-01-26T10:02:05.086Z,29.00
2018-01-26T10:04:34.130Z,30.40
2018-01-26T10:07:02.439Z,27.13
2018-01-26T10:09:31.488Z,27.77
2018-01-26T10:11:59.795Z,28.83
2018-01-26T10:14:28.089Z,29.07
2018-01-26T10:16:56.365Z,28.20
2018-01-26T10:19:24.686Z,31.17
2018-01-26T10:21:52.958Z,29.70
2018-01-26T10:24:21.258Z,29.53
2018-01-26T10:26:49.543Z,28.67
2018-01-26T10:29:17.834Z,27.90
2018-01-26T10:31:46.134Z,27.30
2018-01-26T10:34:14.445Z,28.23
2018-01-26T10:36:42.733Z,28.83
2018-01-26T10:39:11.038Z,26.57
2018-01-26T10:41:39.311Z,27.10
2018-01-26T10:44:08.481Z,30.23
2018-01-26T10:46:36.781Z,30.30
2018-01-26T10:49:05.064Z,27.90
2018-01-26T10:51:33.367Z,29.83
2018-01-26T10:54:01.662Z,28.80
2018-01-26T10:56:29.973Z,28.67
2018-01-26T10:58:58.365Z,29.43
2018-01-26T11:01:27.086Z,27.97
2018-01-26T11:03:55.373Z,31.63
2018-01-26T11:06:23.677Z,28.70
2018-01-26T11:08:52.757Z,27.60
2018-01-26T11:11:21.076Z,30.60
2018-01-26T11:13:49.376Z,28.13
2018-01-26T11:16:17.637Z,28.00
2018-01-26T11:18:45.973Z,29.30
2018-01-26T11:21:14.269Z,28.00
2018-01-26T11:23:42.557Z,28.13
2018-01-26T11:26:10.862Z,28.70
2018-01-26T11:28:39.137Z,28.43
2018-01-26T11:31:07.433Z,29.20
2018-01-26T11:33:35.710Z,28.73
2018-01-26T11:36:04.046Z,27.03
2018-01-26T11:38:32.324Z,26.03
2018-01-26T11:41:00.606Z,31.10
2018-01-26T11:43:28.913Z,26.93
2018-01-26T11:45:57.192Z,26.93
2018-01-26T11:48:25.509Z,29.03
2018-01-26T11:50:53.806Z,28.43
2018-01-26T11:53:22.879Z,25.53
2018-01-26T11:55:51.204Z,27.57
2018-01-26T11:58:19.448Z,26.53
2018-01-26T12:00:48.521Z,29.83
2018-01-26T12:03:16.852Z,27.90
2018-01-26T12:05:45.176Z,28.47
2018-01-26T12:08:13.539Z,30.27
2018-01-26T12:10:41.882Z,29.80
2018-01-26T12:13:10.170Z,29.40
2018-01-26T12:15:38.503Z,27.42
2018-01-26T12:18:06.782Z,28.93
2018-01-26T12:20:35.812Z,28.93
2018-01-26T12:23:04.146Z,32.60
2018-01-26T12:25:32.412Z,26.83
2018-01-26T12:28:00.727Z,27.17
2018-01-26T12:30:29.789Z,26.60
2018-01-26T12:32:58.147Z,28.93
2018-01-26T12:35:26.431Z,27.13
2018-01-26T12:37:54.715Z,26.33
2018-01-26T12:40:23.040Z,28.30
2018-01-26T12:42:51.325Z,27.77
2018-01-26T12:45:19.626Z,29.67
2018-01-26T12:47:47.921Z,28.33
2018-01-26T12:50:17.187Z,27.70
2018-01-26T12:55:44.267Z,26.70
2018-01-26T13:01:13.894Z,28.80
2018-01-26T13:03:42.233Z,27.63
2018-01-26T13:06:10.548Z,30.10
2018-01-26T13:08:38.854Z,28.33
2018-01-26T13:11:07.185Z,30.20
2018-01-26T13:13:35.545Z,30.37
2018-01-26T13:16:03.956Z,28.33
2018-01-26T13:18:32.317Z,27.77
2018-01-26T13:21:02.128Z,31.40
2018-01-26T13:23:30.435Z,29.80
2018-01-26T13:25:58.709Z,31.90
2018-01-26T13:28:27.367Z,28.83
2018-01-26T13:30:56.425Z,29.80
2018-01-26T13:33:24.741Z,29.90
2018-01-26T13:35:53.337Z,29.00
2018-01-26T13:38:21.643Z,29.07
2018-01-26T13:40:49.957Z,29.73
2018-01-26T13:43:18.264Z,31.93
2018-01-26T13:45:46.576Z,29.50
2018-01-26T13:48:14.872Z,29.70
2018-01-26T13:50:43.169Z,28.43
2018-01-26T13:53:11.476Z,31.13
2018-01-26T13:55:41.360Z,30.87
2018-01-26T13:58:09.728Z,29.83
2018-01-26T14:00:38.006Z,27.83
2018-01-26T14:03:06.651Z,28.00
2018-01-26T14:05:35.723Z,31.10
2018-01-26T14:08:04.022Z,29.43
2018-01-26T14:10:33.094Z,29.00
2018-01-26T14:13:01.497Z,30.30
2018-01-26T14:15:30.575Z,36.00
2018-01-26T14:17:58.852Z,30.47
2018-01-26T14:20:27.216Z,30.80
2018-01-26T14:22:55.557Z,29.27
2018-01-26T14:25:23.890Z,30.47
2018-01-26T14:27:52.208Z,30.97
2018-01-26T14:30:20.570Z,29.23
2018-01-26T14:32:48.873Z,28.57
2018-01-26T14:35:17.695Z,32.47
2018-01-26T14:37:46.278Z,29.77
2018-01-26T14:40:14.570Z,29.63
2018-01-26T14:42:42.952Z,29.97
2018-01-26T14:45:11.225Z,31.07
2018-01-26T14:47:39.553Z,33.80
2018-01-26T14:50:07.880Z,29.50
2018-01-26T14:52:37.697Z,29.40
2018-01-26T14:55:05.996Z,32.67
2018-01-26T14:57:35.064Z,31.40
2018-01-26T15:00:03.378Z,30.30
2018-01-26T15:02:32.503Z,30.30
2018-01-26T15:05:00.813Z,32.60
2018-01-26T15:07:30.013Z,31.03
2018-01-26T15:09:58.296Z,28.53
2018-01-26T15:12:26.597Z,33.40
2018-01-26T15:14:54.874Z,30.50
2018-01-26T15:17:23.176Z,32.13
2018-01-26T15:19:51.456Z,33.87
2018-01-26T15:22:19.775Z,33.27
2018-01-26T15:24:48.138Z,31.03
2018-01-26T15:27:16.496Z,32.97
2018-01-26T15:29:44.794Z,29.57
2018-01-26T15:32:13.059Z,31.70
2018-01-26T15:34:41.368Z,32.07
2018-01-26T15:37:09.642Z,30.60
2018-01-26T15:39:37.970Z,33.43
2018-01-26T15:42:07.006Z,30.23
2018-01-26T15:44:35.322Z,32.10
2018-01-26T15:47:03.593Z,31.23
2018-01-26T15:49:32.389Z,31.63
2018-01-26T15:52:00.661Z,36.67
2018-01-26T15:54:28.979Z,32.37
2018-01-26T15:56:57.284Z,32.00
2018-01-26T15:59:25.565Z,35.10
2018-01-26T16:01:53.871Z,32.40
2018-01-26T16:04:22.220Z,32.67
2018-01-26T16:06:50.554Z,33.77
2018-01-26T16:09:18.916Z,34.57
2018-01-26T16:11:47.207Z,33.33
2018-01-26T16:14:17.199Z,32.40
2018-01-26T16:16:45.530Z,34.10
2018-01-26T16:19:13.884Z,32.87
2018-01-26T16:21:42.250Z,33.50
2018-01-26T16:24:10.576Z,68.17
2018-01-26T16:26:38.890Z,36.40
2018-01-26T16:29:07.506Z,33.33
2018-01-26T16:31:35.788Z,35.97
2018-01-26T16:34:04.936Z,34.67
2018-01-26T16:36:33.267Z,34.53
2018-01-26T16:39:02.337Z,32.00
2018-01-26T16:41:30.657Z,32.50
2018-01-26T16:43:58.949Z,34.43
2018-01-26T16:46:27.574Z,32.70
2018-01-26T16:48:55.926Z,32.90
2018-01-26T16:51:24.267Z,33.97
2018-01-26T16:53:53.368Z,35.87
2018-01-26T16:56:21.652Z,36.77
2018-01-26T16:58:50.333Z,34.20
2018-01-26T17:01:18.629Z,31.30
2018-01-26T17:03:46.953Z,32.00
2018-01-26T17:06:15.267Z,32.70
2018-01-26T17:08:43.568Z,33.03
2018-01-26T17:11:12.136Z,32.00
2018-01-26T17:13:40.463Z,34.07
2018-01-26T17:16:08.847Z,33.90
2018-01-26T17:18:37.167Z,35.63
2018-01-26T17:21:05.446Z,33.57
2018-01-26T17:23:34.548Z,32.07
2018-01-26T17:26:03.630Z,30.93
2018-01-26T17:28:33.030Z,33.23
2018-01-26T17:31:02.092Z,35.30
2018-01-26T17:33:30.387Z,33.27
2018-01-26T17:35:58.687Z,32.93
2018-01-26T17:38:27.803Z,31.87
2018-01-26T17:40:56.862Z,33.37
2018-01-26T17:43:25.151Z,26.00
2018-01-26T17:45:53.728Z,32.70
2018-01-26T17:48:22.224Z,35.27
2018-01-26T17:50:50.509Z,33.63
2018-01-26T17:53:18.835Z,33.40
2018-01-26T17:55:47.122Z,32.07
2018-01-26T17:58:15.453Z,35.30
2018-01-26T18:00:43.800Z,35.60
2018-01-26T18:03:12.490Z,34.67
2018-01-26T18:05:40.779Z,32.17
2018-01-26T18:08:09.958Z,34.10
2018-01-26T18:10:38.261Z,26.80
2018-01-26T18:13:07.372Z,31.60
2018-01-26T18:15:36.444Z,37.97
2018-01-26T18:18:05.454Z,34.17
2018-01-26T18:20:34.822Z,32.50
2018-01-26T18:23:03.111Z,36.27
2018-01-26T18:25:31.543Z,34.10
2018-01-26T18:28:00.660Z,36.23
2018-01-26T18:30:29.804Z,34.70
2018-01-26T18:32:58.126Z,32.83
2018-01-26T18:35:26.435Z,34.40
2018-01-26T18:37:55.049Z,37.53
2018-01-26T18:40:24.405Z,34.07
2018-01-26T18:42:52.733Z,37.47
2018-01-26T18:45:21.925Z,37.33
2018-01-26T18:47:50.569Z,35.30
2018-01-26T18:50:19.012Z,34.90
2018-01-26T18:52:47.306Z,32.60
2018-01-26T18:55:15.665Z,38.23
2018-01-26T18:57:44.745Z,36.30
2018-01-26T19:00:14.119Z,35.37
2018-01-26T19:02:42.404Z,34.40
2018-01-26T19:05:10.707Z,33.37
2018-01-26T19:07:39.870Z,36.40
2018-01-26T19:10:08.190Z,36.07
2018-01-26T19:12:37.343Z,36.80
2018-01-26T19:15:05.646Z,37.60
2018-01-26T19:17:34.990Z,37.77
2018-01-26T19:20:03.277Z,38.57
2018-01-26T19:22:31.567Z,40.00
2018-01-26T19:24:59.884Z,39.67
2018-01-26T19:27:28.532Z,43.20
2018-01-26T19:29:56.877Z,39.83
2018-01-26T19:32:25.941Z,38.20
2018-01-26T19:34:54.536Z,35.73
2018-01-26T19:37:23.688Z,37.13
2018-01-26T19:39:51.968Z,38.37
2018-01-26T19:42:21.252Z,36.70
2018-01-26T19:44:49.630Z,38.53
2018-01-26T19:47:18.124Z,35.83
2018-01-26T19:49:46.460Z,37.17
2018-01-26T19:52:15.604Z,37.93
2018-01-26T19:54:43.910Z,36.30
2018-01-26T19:57:12.493Z,36.93
2018-01-26T19:59:40.975Z,40.70
2018-01-26T20:02:10.108Z,38.50
2018-01-26T20:04:44.312Z,37.10
2018-01-26T20:07:28.285Z,38.47
2018-01-26T20:09:57.477Z,37.80
2018-01-26T20:12:25.776Z,37.50
2018-01-26T20:14:54.255Z,38.20
2018-01-26T20:17:22.552Z,38.47
2018-01-26T20:19:51.190Z,37.33
2018-01-26T20:22:19.763Z,40.17
2018-01-26T20:24:48.208Z,37.70
2018-01-26T20:27:16.713Z,37.63
2018-01-26T20:29:45.170Z,37.40
2018-01-26T20:32:19.478Z,37.70
2018-01-26T20:34:48.569Z,38.23
2018-01-26T20:37:17.357Z,36.60
2018-01-26T20:39:45.678Z,39.47
2018-01-26T20:42:14.119Z,38.57
2018-01-26T20:44:42.556Z,41.30
2018-01-26T20:47:10.856Z,39.73
2018-01-26T20:49:40.016Z,36.63
2018-01-26T20:52:08.349Z,40.20
2018-01-26T20:54:37.763Z,37.50
2018-01-26T20:57:06.072Z,40.50
2018-01-26T20:59:34.373Z,40.57
2018-01-26T21:02:02.705Z,40.47
2018-01-26T21:04:31.028Z,42.00
2018-01-26T21:07:00.140Z,41.33
2018-01-26T21:09:29.235Z,41.13
2018-01-26T21:11:57.567Z,39.33
2018-01-26T21:14:25.886Z,41.10
2018-01-26T21:16:54.464Z,38.97
2018-01-26T21:19:22.778Z,37.60
2018-01-26T21:21:51.117Z,39.03
2018-01-26T21:24:19.435Z,38.37
2018-01-26T21:26:47.839Z,41.10
2018-01-26T21:29:16.173Z,38.50
2018-01-26T21:31:45.290Z,41.80
2018-01-26T21:34:14.378Z,38.90
2018-01-26T21:36:43.550Z,39.97
2018-01-26T21:39:12.207Z,42.30
2018-01-26T21:41:40.649Z,39.87
2018-01-26T21:44:09.741Z,43.20
2018-01-26T21:46:38.176Z,37.70
2018-01-26T21:49:06.491Z,44.00
2018-01-26T21:51:34.804Z,40.50
2018-01-26T21:54:03.125Z,41.20
2018-01-26T21:56:31.985Z,40.30
2018-01-26T21:59:01.080Z,44.40
2018-01-26T22:01:29.426Z,39.50
2018-01-26T22:03:58.728Z,43.40
2018-01-26T22:06:32.856Z,45.13
2018-01-26T22:09:01.196Z,44.03
2018-01-26T22:11:29.474Z,43.43
2018-01-26T22:13:57.785Z,41.70
2018-01-26T22:16:26.869Z,43.60
2018-01-26T22:18:56.248Z,42.37
2018-01-26T22:21:24.955Z,41.20
2018-01-26T22:23:53.259Z,41.57
2018-01-26T22:26:21.580Z,43.83
2018-01-26T22:28:49.872Z,44.00
2018-01-26T22:31:18.196Z,41.97
2018-01-26T22:33:46.502Z,43.17
2018-01-26T22:36:14.827Z,44.07
2018-01-26T22:38:43.883Z,46.23
2018-01-26T22:41:12.436Z,39.80
2018-01-26T22:43:40.826Z,45.50
2018-01-26T22:46:09.104Z,42.60
2018-01-26T22:48:37.456Z,43.87
2018-01-26T22:51:06.561Z,40.80
2018-01-26T22:53:34.870Z,41.60
2018-01-26T22:56:03.207Z,43.77
2018-01-26T22:58:31.922Z,41.70
2018-01-26T23:01:00.195Z,42.33
2018-01-26T23:03:28.624Z,42.77
2018-01-26T23:05:56.933Z,42.60
2018-01-26T23:08:25.228Z,42.73
2018-01-26T23:10:53.519Z,42.40
2018-01-26T23:13:21.865Z,38.80
2018-01-26T23:15:51.235Z,40.00
2018-01-26T23:18:19.546Z,40.53
2018-01-26T23:20:47.815Z,39.50
2018-01-26T23:23:16.961Z,37.43
2018-01-26T23:25:45.212Z,39.03
2018-01-26T23:28:13.545Z,39.07
2018-01-26T23:30:41.805Z,37.77
2018-01-26T23:33:10.121Z,39.67
2018-01-26T23:35:38.394Z,38.37
2018-01-26T23:38:07.797Z,41.90
2018-01-26T23:40:36.084Z,41.77
2018-01-26T23:43:05.150Z,38.97
2018-01-26T23:45:33.447Z,40.93
2018-01-26T23:48:02.506Z,40.57
2018-01-26T23:50:30.900Z,45.47
2018-01-26T23:52:59.210Z,43.17
2018-01-26T23:55:28.609Z,43.30
2018-01-26T23:57:56.894Z,41.90
